createdAt,value
2018-03-04T00:01:08.130Z,104.03
2018-03-04T00:03:35.573Z,104.55
2018-03-04T00:06:03.041Z,103.65
2018-03-04T00:08:30.508Z,113.25
2018-03-04T00:10:58.209Z,104.28
2018-03-04T00:13:26.410Z,98.47
2018-03-04T00:15:53.893Z,107.57
2018-03-04T00:18:22.336Z,105.18
2018-03-04T00:20:49.780Z,108.57
2018-03-04T00:23:17.288Z,108.37
2018-03-04T00:25:44.734Z,106.37
2018-03-04T00:28:12.181Z,103.55
2018-03-04T00:30:39.744Z,109.03
2018-03-04T00:33:07.209Z,104.68
2018-03-04T00:35:34.653Z,108.35
2018-03-04T00:38:02.259Z,109.82
2018-03-04T00:40:29.703Z,114.45
2018-03-04T00:42:57.175Z,107.75
2018-03-04T00:45:24.760Z,111.90
2018-03-04T00:47:52.977Z,113.55
2018-03-04T00:50:20.423Z,113.55
2018-03-04T00:52:48.060Z,116.78
2018-03-04T00:55:16.261Z,114.62
2018-03-04T00:57:44.465Z,115.65
2018-03-04T01:00:18.605Z,111.68
2018-03-04T01:02:46.053Z,121.45
2018-03-04T01:05:13.545Z,112.80
2018-03-04T01:07:41.756Z,116.88
2018-03-04T01:10:09.197Z,114.72
2018-03-04T01:12:36.736Z,118.15
2018-03-04T01:15:11.489Z,116.70
2018-03-04T01:17:38.952Z,118.80
2018-03-04T01:20:10.216Z,121.82
2018-03-04T01:22:37.672Z,122.00
2018-03-04T01:25:05.115Z,122.20
2018-03-04T01:27:32.929Z,115.32
2018-03-04T01:30:00.373Z,116.65
2018-03-04T01:32:27.817Z,114.68
2018-03-04T01:34:55.296Z,125.12
2018-03-04T01:37:22.733Z,122.00
2018-03-04T01:39:50.247Z,127.03
2018-03-04T01:42:17.697Z,117.85
2018-03-04T01:44:46.057Z,118.55
2018-03-04T01:47:13.545Z,128.80
2018-03-04T01:49:41.793Z,134.55
2018-03-04T01:52:09.255Z,120.55
2018-03-04T01:54:36.699Z,115.00
2018-03-04T01:57:04.170Z,123.32
2018-03-04T01:59:31.605Z,118.75
2018-03-04T02:01:59.200Z,122.30
2018-03-04T02:04:27.441Z,117.00
2018-03-04T02:06:54.897Z,120.25
2018-03-04T02:09:22.341Z,120.22
2018-03-04T02:11:51.133Z,121.43
2018-03-04T02:14:18.585Z,117.62
2018-03-04T02:16:46.030Z,123.95
2018-03-04T02:19:13.607Z,118.78
2018-03-04T02:21:41.072Z,115.68
2018-03-04T02:29:50.928Z,113.60
2018-03-04T02:32:18.428Z,118.20
2018-03-04T02:34:45.865Z,110.78
2018-03-04T02:37:13.309Z,123.82
2018-03-04T02:39:40.780Z,120.40
2018-03-04T02:42:08.318Z,113.47
2018-03-04T02:44:35.770Z,118.78
2018-03-04T02:47:03.238Z,116.55
2018-03-04T02:49:30.692Z,114.25
2018-03-04T02:51:58.153Z,113.80
2018-03-04T02:54:25.614Z,113.90
2018-03-04T02:56:53.184Z,111.70
2018-03-04T02:59:20.632Z,118.95
2018-03-04T03:01:48.069Z,119.70
2018-03-04T03:04:15.536Z,106.15
2018-03-04T03:06:43.006Z,113.35
2018-03-04T03:09:10.452Z,117.13
2018-03-04T03:11:37.924Z,121.50
2018-03-04T03:14:05.372Z,115.95
2018-03-04T03:16:32.824Z,115.28
2018-03-04T03:19:11.373Z,122.35
2018-03-04T03:21:38.889Z,108.78
2018-03-04T03:24:06.321Z,116.60
2018-03-04T03:26:33.988Z,112.12
2018-03-04T03:29:02.225Z,122.47
2018-03-04T03:31:29.657Z,115.12
2018-03-04T03:34:02.168Z,116.45
2018-03-04T03:36:29.614Z,114.03
2018-03-04T03:38:57.056Z,120.07
2018-03-04T03:41:24.520Z,118.37
2018-03-04T03:43:51.961Z,117.85
2018-03-04T03:46:19.432Z,117.97
2018-03-04T03:48:46.872Z,114.12
2018-03-04T03:51:14.520Z,122.22
2018-03-04T03:53:41.962Z,110.35
2018-03-04T03:56:10.197Z,115.47
2018-03-04T03:58:37.657Z,124.00
2018-03-04T04:01:05.107Z,117.90
2018-03-04T04:03:32.571Z,119.00
2018-03-04T04:06:00.013Z,119.18
2018-03-04T04:08:27.456Z,114.72
2018-03-04T04:10:55.114Z,114.10
2018-03-04T04:13:22.554Z,122.20
2018-03-04T04:15:50.036Z,116.55
2018-03-04T04:18:17.497Z,121.18
2018-03-04T04:20:44.996Z,110.85
2018-03-04T04:23:12.441Z,124.62
2018-03-04T04:25:39.964Z,126.50
2018-03-04T04:28:07.493Z,115.28
2018-03-04T04:30:35.827Z,118.97
2018-03-04T04:33:03.266Z,119.15
2018-03-04T04:35:30.723Z,127.20
2018-03-04T04:37:58.185Z,115.60
2018-03-04T04:40:25.678Z,112.15
2018-03-04T04:42:53.128Z,122.28
2018-03-04T04:45:20.569Z,115.47
2018-03-04T04:47:48.210Z,113.75
2018-03-04T04:50:15.664Z,110.75
2018-03-04T04:52:43.105Z,124.28
2018-03-04T04:55:10.569Z,116.75
2018-03-04T04:57:38.065Z,122.35
2018-03-04T05:00:05.501Z,120.72
2018-03-04T05:02:32.950Z,119.18
2018-03-04T05:05:00.545Z,117.90
2018-03-04T05:07:28.008Z,119.28
2018-03-04T05:09:55.452Z,116.85
2018-03-04T05:12:23.048Z,117.35
2018-03-04T05:14:51.259Z,113.53
2018-03-04T05:17:18.730Z,116.32
2018-03-04T05:19:46.177Z,117.47
2018-03-04T05:22:13.972Z,113.93
2018-03-04T05:24:41.525Z,123.82
2018-03-04T05:27:09.000Z,108.18
2018-03-04T05:29:36.444Z,114.28
2018-03-04T05:32:03.932Z,118.15
2018-03-04T05:34:31.372Z,116.68
2018-03-04T05:36:59.668Z,113.05
2018-03-04T05:39:27.112Z,122.10
2018-03-04T05:41:54.588Z,117.60
2018-03-04T05:44:22.905Z,120.82
2018-03-04T05:46:50.357Z,113.18
2018-03-04T05:49:17.964Z,117.53
2018-03-04T05:51:45.417Z,107.87
2018-03-04T05:54:13.625Z,117.87
2018-03-04T05:56:42.073Z,119.97
2018-03-04T05:59:09.532Z,113.03
2018-03-04T06:01:37.082Z,111.22
2018-03-04T06:04:05.432Z,116.12
2018-03-04T06:06:32.896Z,114.22
2018-03-04T06:09:00.356Z,112.20
2018-03-04T06:11:27.800Z,115.47
2018-03-04T06:13:55.539Z,113.37
2018-03-04T06:16:22.993Z,124.22
2018-03-04T06:18:50.624Z,115.55
2018-03-04T06:21:18.829Z,127.38
2018-03-04T06:23:46.269Z,114.32
2018-03-04T06:26:13.743Z,108.25
2018-03-04T06:28:41.232Z,121.75
2018-03-04T06:31:08.691Z,121.22
2018-03-04T06:33:36.130Z,114.82
2018-03-04T06:36:03.729Z,123.05
2018-03-04T06:38:33.131Z,133.85
2018-03-04T06:41:00.618Z,213.45
2018-03-04T06:43:28.818Z,128.02
2018-03-04T06:45:56.285Z,128.62
2018-03-04T06:48:23.793Z,247.68
2018-03-04T06:50:52.336Z,205.15
2018-03-04T06:53:19.776Z,190.30
2018-03-04T06:55:58.116Z,123.03
2018-03-04T06:58:25.556Z,120.72
2018-03-04T07:00:53.063Z,119.00
2018-03-04T07:03:21.285Z,116.35
2018-03-04T07:05:48.740Z,114.28
2018-03-04T07:08:16.269Z,119.05
2018-03-04T07:10:53.716Z,102.45
2018-03-04T07:13:21.165Z,111.82
2018-03-04T07:15:48.693Z,116.47
2018-03-04T07:18:16.142Z,119.53
2018-03-04T07:20:45.675Z,117.80
2018-03-04T07:23:13.114Z,101.78
2018-03-04T07:25:40.577Z,105.43
2018-03-04T07:28:15.304Z,111.43
2018-03-04T07:30:42.976Z,113.72
2018-03-04T07:33:10.552Z,102.95
2018-03-04T07:35:38.021Z,100.60
2018-03-04T07:38:05.476Z,120.00
2018-03-04T07:40:32.999Z,102.10
2018-03-04T07:43:00.426Z,97.43
2018-03-04T07:45:27.860Z,103.70
2018-03-04T07:47:55.334Z,97.65
2018-03-04T07:50:22.794Z,99.97
2018-03-04T07:52:50.304Z,115.78
2018-03-04T07:55:17.753Z,114.65
2018-03-04T07:57:45.228Z,104.05
2018-03-04T08:00:12.686Z,105.25
2018-03-04T08:02:40.157Z,104.72
2018-03-04T08:05:11.525Z,108.18
2018-03-04T08:07:39.067Z,103.70
2018-03-04T08:10:06.509Z,105.75
2018-03-04T08:12:34.017Z,101.95
2018-03-04T08:15:02.246Z,113.60
2018-03-04T08:17:29.985Z,107.40
2018-03-04T08:19:57.459Z,102.28
2018-03-04T08:22:25.120Z,108.07
2018-03-04T08:25:04.471Z,105.70
2018-03-04T08:27:43.718Z,107.50
2018-03-04T08:30:11.155Z,100.25
2018-03-04T08:32:38.629Z,105.32
2018-03-04T08:35:06.089Z,103.20
2018-03-04T08:37:33.535Z,97.47
2018-03-04T08:40:01.212Z,95.60
2018-03-04T08:42:28.870Z,94.20
2018-03-04T08:44:56.300Z,94.15
2018-03-04T08:47:23.996Z,93.43
2018-03-04T08:49:51.433Z,91.80
2018-03-04T08:52:18.863Z,96.55
2018-03-04T08:54:47.011Z,89.15
2018-03-04T08:57:14.432Z,92.30
2018-03-04T08:59:42.227Z,86.90
2018-03-04T09:02:10.439Z,96.55
2018-03-04T09:04:37.877Z,94.28
2018-03-04T09:07:05.453Z,90.50
2018-03-04T09:09:33.268Z,86.22
2018-03-04T09:12:00.680Z,88.80
2018-03-04T09:14:29.694Z,79.95
2018-03-04T09:16:57.133Z,82.28
2018-03-04T09:19:24.865Z,85.85
2018-03-04T09:21:52.538Z,91.72
2018-03-04T09:24:20.872Z,79.35
2018-03-04T09:26:48.329Z,88.57
2018-03-04T09:29:15.801Z,81.22
2018-03-04T09:31:43.378Z,84.05
2018-03-04T09:34:10.828Z,79.43
2018-03-04T09:36:38.353Z,79.80
2018-03-04T09:39:05.801Z,81.93
2018-03-04T09:41:33.288Z,78.45
2018-03-04T09:44:00.732Z,69.43
2018-03-04T09:46:28.201Z,64.15
2018-03-04T09:48:55.657Z,71.03
2018-03-04T09:51:23.140Z,68.75
2018-03-04T09:53:51.363Z,74.10
2018-03-04T09:56:33.018Z,75.10
2018-03-04T09:59:03.341Z,70.55
2018-03-04T10:01:30.846Z,65.05
2018-03-04T10:04:06.013Z,63.97
2018-03-04T10:06:56.856Z,67.57
2018-03-04T10:09:24.316Z,64.12
2018-03-04T10:11:59.613Z,62.08
2018-03-04T10:17:09.900Z,64.30
2018-03-04T10:19:39.188Z,61.00
2018-03-04T10:22:08.746Z,63.25
2018-03-04T10:24:40.083Z,60.70
2018-03-04T10:27:12.376Z,59.58
2018-03-04T10:29:55.295Z,59.10
2018-03-04T10:32:41.211Z,62.72
2018-03-04T10:35:09.283Z,61.58
2018-03-04T10:37:37.382Z,57.03
2018-03-04T10:40:06.678Z,56.70
2018-03-04T10:42:34.289Z,54.28
2018-03-04T10:45:17.861Z,57.55
2018-03-04T10:47:55.390Z,54.88
2018-03-04T11:17:50.072Z,52.72
2018-03-04T11:20:17.538Z,51.63
2018-03-04T11:22:44.993Z,50.50
2018-03-04T11:25:12.646Z,47.10
2018-03-04T11:27:40.125Z,49.40
2018-03-04T11:30:09.181Z,50.00
2018-03-04T11:32:37.438Z,47.25
2018-03-04T11:35:04.894Z,50.67
2018-03-04T11:37:32.486Z,48.30
2018-03-04T11:40:02.639Z,50.10
2018-03-04T11:42:30.149Z,52.72
2018-03-04T11:44:58.554Z,50.60
2018-03-04T11:47:25.993Z,48.15
2018-03-04T11:49:54.208Z,43.97
2018-03-04T11:52:21.701Z,45.17
2018-03-04T11:54:49.161Z,47.95
2018-03-04T11:57:16.613Z,41.10
2018-03-04T11:59:44.091Z,44.67
2018-03-04T12:02:11.761Z,45.25
2018-03-04T12:04:39.269Z,44.25
2018-03-04T12:07:06.788Z,47.25
2018-03-04T12:09:35.078Z,38.05
2018-03-04T12:12:02.493Z,41.75
2018-03-04T12:14:33.592Z,45.12
2018-03-04T12:17:01.138Z,41.80
2018-03-04T12:19:28.594Z,36.50
2018-03-04T12:22:00.666Z,42.33
2018-03-04T12:24:28.905Z,38.70
2018-03-04T12:26:57.192Z,35.28
2018-03-04T12:29:28.533Z,37.05
2018-03-04T12:31:56.024Z,35.40
2018-03-04T12:34:23.498Z,37.30
2018-03-04T12:36:54.017Z,36.30
2018-03-04T12:39:21.492Z,37.53
2018-03-04T12:41:49.389Z,40.10
2018-03-04T12:44:30.605Z,38.22
2018-03-04T12:46:58.178Z,36.63
2018-03-04T12:49:25.649Z,37.58
2018-03-04T12:51:53.897Z,32.95
2018-03-04T12:54:22.141Z,34.25
2018-03-04T12:56:49.593Z,35.03
2018-03-04T12:59:17.062Z,35.10
2018-03-04T13:01:44.579Z,31.15
2018-03-04T13:04:12.029Z,32.88
2018-03-04T13:06:39.489Z,34.55
2018-03-04T13:09:15.988Z,33.47
2018-03-04T13:11:43.492Z,32.28
2018-03-04T13:14:11.748Z,30.62
2018-03-04T13:16:39.454Z,31.05
2018-03-04T13:19:06.995Z,29.42
2018-03-04T13:21:34.477Z,31.48
2018-03-04T13:24:04.095Z,29.35
2018-03-04T13:26:31.733Z,46.40
2018-03-04T13:28:59.770Z,26.15
2018-03-04T13:31:27.341Z,28.80
2018-03-04T13:33:57.995Z,28.00
2018-03-04T13:36:27.262Z,26.40
2018-03-04T13:38:55.606Z,23.00
2018-03-04T13:41:23.186Z,19.05
2018-03-04T13:43:50.722Z,20.62
2018-03-04T13:46:18.229Z,18.27
2018-03-04T13:48:45.741Z,25.77
2018-03-04T13:51:13.370Z,19.10
2018-03-04T13:53:40.874Z,15.70
2018-03-04T13:56:08.368Z,17.02
2018-03-04T13:58:35.934Z,16.37
2018-03-04T14:01:04.186Z,19.90
2018-03-04T14:03:31.682Z,17.55
2018-03-04T14:23:03.322Z,14.95
2018-03-04T14:25:31.159Z,17.85
2018-03-04T14:28:05.384Z,112.55
2018-03-04T14:30:32.873Z,21.62
2018-03-04T14:35:54.455Z,24.63
2018-03-04T14:38:21.921Z,15.60
2018-03-04T14:40:49.917Z,15.73
2018-03-04T14:43:17.390Z,16.67
2018-03-04T14:48:35.294Z,19.90
2018-03-04T14:51:15.549Z,13.38
2018-03-04T14:53:43.004Z,13.77
2018-03-04T14:56:10.573Z,13.77
2018-03-04T14:58:38.029Z,15.15
2018-03-04T15:01:05.510Z,15.25
2018-03-04T15:03:33.057Z,14.27
2018-03-04T15:06:00.617Z,15.68
2018-03-04T15:08:28.230Z,13.93
2018-03-04T15:10:56.481Z,13.48
2018-03-04T15:13:24.052Z,14.65
2018-03-04T15:15:51.537Z,14.50
2018-03-04T15:18:18.981Z,13.10
2018-03-04T15:20:52.341Z,12.88
2018-03-04T15:23:19.840Z,11.23
2018-03-04T15:25:47.392Z,15.15
2018-03-04T15:28:15.596Z,12.68
2018-03-04T15:30:43.091Z,14.32
2018-03-04T15:33:10.567Z,12.57
2018-03-04T15:35:38.011Z,13.25
2018-03-04T15:38:05.777Z,12.43
2018-03-04T15:40:33.244Z,13.60
2018-03-04T15:43:00.750Z,13.23
2018-03-04T15:45:28.236Z,12.52
2018-03-04T15:47:55.757Z,14.20
2018-03-04T15:50:29.101Z,12.98
2018-03-04T15:52:56.589Z,19.05
2018-03-04T15:55:25.917Z,15.07
2018-03-04T15:57:53.494Z,19.27
2018-03-04T16:00:21.741Z,13.90
2018-03-04T16:02:49.310Z,14.35
2018-03-04T16:05:16.796Z,19.27
2018-03-04T16:13:34.217Z,15.50
2018-03-04T16:16:02.460Z,15.75
2018-03-04T16:18:30.317Z,14.43
2018-03-04T16:20:57.810Z,16.42
2018-03-04T16:23:26.102Z,16.00
2018-03-04T16:25:57.938Z,15.43
2018-03-04T16:28:25.397Z,17.55
2018-03-04T16:30:52.905Z,15.00
2018-03-04T16:33:21.130Z,17.15
2018-03-04T16:35:49.456Z,15.40
2018-03-04T16:38:16.956Z,18.42
2018-03-04T16:40:44.422Z,14.95
2018-03-04T16:43:11.972Z,17.77
2018-03-04T16:45:39.523Z,19.80
2018-03-04T16:48:07.029Z,15.63
2018-03-04T16:50:34.576Z,16.40
2018-03-04T16:53:02.840Z,17.80
2018-03-04T16:55:31.084Z,17.92
2018-03-04T16:57:58.720Z,20.27
2018-03-04T17:00:26.278Z,24.45
2018-03-04T17:02:53.792Z,23.85
2018-03-04T17:05:21.326Z,23.92
2018-03-04T17:07:48.817Z,24.63
2018-03-04T17:10:16.388Z,24.27
2018-03-04T17:12:44.685Z,24.75
2018-03-04T17:15:12.302Z,25.42
2018-03-04T17:17:39.822Z,24.00
2018-03-04T17:20:12.250Z,67.20
2018-03-04T17:22:39.773Z,30.62
2018-03-04T17:25:07.381Z,26.25
2018-03-04T17:27:36.077Z,28.27
2018-03-04T17:30:03.575Z,32.78
2018-03-04T17:32:31.458Z,29.27
2018-03-04T17:34:58.975Z,32.70
2018-03-04T17:37:27.302Z,35.13
2018-03-04T17:39:54.769Z,36.97
2018-03-04T17:42:22.332Z,40.05
2018-03-04T17:44:49.789Z,42.67
2018-03-04T17:47:17.325Z,44.80
2018-03-04T17:49:44.857Z,43.45
2018-03-04T17:52:12.376Z,40.97
2018-03-04T17:54:40.669Z,48.40
2018-03-04T18:02:55.101Z,44.67
2018-03-04T18:05:22.567Z,47.47
2018-03-04T18:07:50.163Z,46.10
2018-03-04T18:10:17.660Z,51.58
2018-03-04T18:12:45.279Z,44.20
2018-03-04T18:15:28.561Z,46.45
2018-03-04T18:17:56.017Z,53.50
2018-03-04T18:20:23.675Z,54.33
2018-03-04T18:22:52.552Z,53.72
2018-03-04T18:25:20.769Z,52.62
2018-03-04T18:30:38.821Z,52.42
2018-03-04T18:33:06.301Z,50.95
2018-03-04T18:35:33.762Z,57.03
2018-03-04T18:38:01.253Z,55.67
2018-03-04T18:40:28.714Z,63.33
2018-03-04T18:42:56.256Z,69.65
2018-03-04T18:45:24.461Z,62.03
2018-03-04T18:47:51.926Z,63.40
2018-03-04T18:50:19.647Z,62.67
2018-03-04T18:52:47.255Z,73.20
2018-03-04T18:55:14.696Z,64.95
2018-03-04T18:57:42.164Z,61.60
2018-03-04T19:03:00.426Z,59.40
2018-03-04T19:05:27.905Z,62.70
2018-03-04T19:07:55.396Z,65.43
2018-03-04T19:10:23.625Z,69.82
2018-03-04T19:12:51.506Z,60.28
2018-03-04T19:15:18.965Z,62.53
2018-03-04T19:17:46.559Z,62.00
2018-03-04T19:20:14.785Z,58.70
2018-03-04T19:22:42.293Z,59.92
2018-03-04T19:25:10.531Z,60.53
2018-03-04T19:27:38.001Z,65.45
2018-03-04T19:30:05.470Z,67.97
2018-03-04T19:32:32.950Z,58.22
2018-03-04T19:35:01.160Z,62.22
2018-03-04T19:37:28.784Z,63.22
2018-03-04T19:39:56.256Z,65.50
2018-03-04T19:42:23.769Z,64.40
2018-03-04T19:44:51.367Z,61.95
2018-03-04T19:47:18.854Z,57.72
2018-03-04T19:49:46.340Z,63.75
2018-03-04T19:52:13.958Z,59.53
2018-03-04T19:54:41.422Z,64.03
2018-03-04T19:57:08.912Z,61.72
2018-03-04T19:59:39.429Z,63.75
2018-03-04T20:02:06.888Z,57.13
2018-03-04T20:04:34.351Z,56.67
2018-03-04T20:07:01.850Z,60.58
2018-03-04T20:09:30.085Z,60.38
2018-03-04T20:11:57.561Z,60.58
2018-03-04T20:14:30.606Z,63.05
2018-03-04T20:16:58.838Z,58.42
2018-03-04T20:19:27.651Z,57.95
2018-03-04T20:21:55.901Z,61.67
2018-03-04T20:24:23.401Z,55.28
2018-03-04T20:26:50.921Z,54.50
2018-03-04T20:29:18.407Z,63.30
2018-03-04T20:31:46.483Z,55.90
2018-03-04T20:34:14.151Z,65.95
2018-03-04T20:36:41.767Z,58.55
2018-03-04T20:39:09.308Z,52.15
2018-03-04T20:41:36.899Z,53.05
2018-03-04T20:44:04.490Z,52.45
2018-03-04T20:46:32.077Z,50.67
2018-03-04T20:48:59.682Z,45.85
2018-03-04T20:51:27.324Z,50.12
2018-03-04T20:53:54.797Z,48.40
2018-03-04T20:56:22.269Z,47.95
2018-03-04T20:58:49.733Z,50.05
2018-03-04T21:18:21.425Z,47.47
2018-03-04T21:20:49.036Z,44.40
2018-03-04T21:23:18.794Z,41.37
2018-03-04T21:25:46.621Z,42.35
2018-03-04T21:28:15.134Z,41.58
2018-03-04T21:42:30.466Z,40.15
2018-03-04T21:44:57.951Z,36.25
2018-03-04T21:47:25.490Z,37.58
2018-03-04T21:49:53.757Z,36.30
2018-03-04T22:09:25.553Z,32.90
2018-03-04T22:28:58.116Z,31.27
2018-03-04T22:31:25.637Z,33.75
2018-03-04T22:33:53.145Z,32.40
2018-03-04T22:36:20.625Z,32.85
2018-03-04T22:38:48.109Z,28.73
2018-03-04T22:41:15.594Z,29.87
2018-03-04T23:00:47.738Z,23.00
2018-03-04T23:03:15.224Z,22.48
2018-03-04T23:05:42.876Z,21.20
2018-03-04T23:08:10.357Z,18.42
2018-03-04T23:24:51.814Z,14.25
2018-03-04T23:27:19.340Z,11.18
2018-03-04T23:29:47.669Z,13.32
2018-03-04T23:32:15.180Z,9.80
2018-03-04T23:34:43.417Z,12.15
2018-03-04T23:37:10.909Z,10.63
2018-03-04T23:39:39.153Z,10.73
2018-03-04T23:42:06.725Z,9.30
2018-03-04T23:44:34.210Z,9.40
2018-03-04T23:47:02.447Z,9.63
2018-03-04T23:49:29.921Z,9.70
2018-03-04T23:51:57.402Z,9.07
2018-03-04T23:54:25.641Z,7.75
2018-03-04T23:56:53.129Z,7.80
2018-03-04T23:59:20.585Z,7.60
